createdAt,value
2018-09-08T00:01:07.124Z,12.90
2018-09-08T00:03:35.626Z,13.00
2018-09-08T00:06:04.224Z,13.00
2018-09-08T00:08:32.765Z,13.10
2018-09-08T00:11:01.307Z,13.10
2018-09-08T00:13:29.889Z,13.10
2018-09-08T00:16:03.789Z,13.20
2018-09-08T00:18:44.359Z,13.20
2018-09-08T00:21:18.162Z,13.20
2018-09-08T00:23:51.986Z,13.20
2018-09-08T00:26:25.748Z,13.20
2018-09-08T00:29:01.783Z,13.20
2018-09-08T00:31:30.324Z,13.30
2018-09-08T00:33:58.838Z,13.30
2018-09-08T00:36:27.445Z,13.30
2018-09-08T00:38:55.993Z,13.30
2018-09-08T00:41:25.263Z,13.40
2018-09-08T00:43:53.833Z,13.40
2018-09-08T00:46:22.359Z,13.50
2018-09-08T00:48:50.888Z,13.50
2018-09-08T00:51:19.447Z,13.50
2018-09-08T00:53:47.951Z,13.50
2018-09-08T00:56:16.478Z,13.50
2018-09-08T00:59:15.466Z,13.50
2018-09-08T01:01:43.975Z,13.60
2018-09-08T01:04:12.523Z,13.60
2018-09-08T01:06:41.191Z,13.60
2018-09-08T01:09:09.719Z,13.50
2018-09-08T01:11:38.282Z,13.50
2018-09-08T01:14:07.066Z,13.40
2018-09-08T01:16:35.625Z,13.40
2018-09-08T01:19:04.230Z,13.40
2018-09-08T01:21:32.850Z,13.40
2018-09-08T01:24:01.500Z,13.40
2018-09-08T01:26:30.034Z,13.30
2018-09-08T01:28:58.589Z,13.30
2018-09-08T01:31:27.407Z,13.40
2018-09-08T01:33:55.966Z,13.40
2018-09-08T01:36:24.516Z,13.50
2018-09-08T01:38:53.051Z,13.40
2018-09-08T01:41:21.601Z,13.40
2018-09-08T01:43:50.194Z,13.30
2018-09-08T01:46:18.727Z,13.30
2018-09-08T01:48:47.283Z,13.30
2018-09-08T01:51:15.962Z,13.30
2018-09-08T01:53:44.453Z,13.30
2018-09-08T01:56:12.962Z,13.40
2018-09-08T01:58:48.101Z,13.50
2018-09-08T02:01:16.751Z,13.50
2018-09-08T02:03:45.340Z,13.50
2018-09-08T02:06:13.895Z,13.40
2018-09-08T02:08:42.418Z,13.30
2018-09-08T02:11:11.019Z,13.20
2018-09-08T02:13:39.578Z,13.20
2018-09-08T02:16:08.164Z,13.10
2018-09-08T02:18:36.700Z,13.10
2018-09-08T02:21:05.561Z,13.00
2018-09-08T02:23:34.082Z,13.00
2018-09-08T02:26:03.102Z,12.90
2018-09-08T02:28:32.645Z,12.90
2018-09-08T02:31:01.625Z,12.80
2018-09-08T02:33:30.171Z,12.80
2018-09-08T02:35:58.748Z,12.80
2018-09-08T02:38:27.248Z,12.80
2018-09-08T02:40:56.097Z,12.70
2018-09-08T02:43:24.650Z,12.80
2018-09-08T02:45:53.179Z,12.80
2018-09-08T02:48:21.730Z,12.70
2018-09-08T02:50:49.306Z,12.70
2018-09-08T02:53:16.682Z,12.70
2018-09-08T02:55:44.042Z,12.70
2018-09-08T02:58:11.417Z,12.60
2018-09-08T03:00:38.763Z,12.60
2018-09-08T03:03:06.120Z,12.60
2018-09-08T03:05:33.500Z,12.60
2018-09-08T03:08:00.850Z,12.50
2018-09-08T03:10:28.202Z,12.50
2018-09-08T03:12:55.577Z,12.40
2018-09-08T03:15:22.925Z,12.40
2018-09-08T03:17:50.281Z,12.40
2018-09-08T03:20:17.659Z,12.30
2018-09-08T03:22:45.006Z,12.30
2018-09-08T03:25:12.363Z,12.20
2018-09-08T03:27:39.734Z,12.20
2018-09-08T03:30:07.087Z,12.20
2018-09-08T03:32:34.440Z,12.10
2018-09-08T03:35:01.818Z,12.10
2018-09-08T03:37:29.182Z,12.00
2018-09-08T03:39:56.521Z,11.90
2018-09-08T03:42:23.898Z,11.90
2018-09-08T03:44:51.239Z,11.90
2018-09-08T03:47:18.583Z,11.80
2018-09-08T03:49:45.977Z,11.80
2018-09-08T03:52:13.320Z,11.70
2018-09-08T03:54:40.681Z,11.70
2018-09-08T03:57:08.056Z,11.70
2018-09-08T03:59:35.408Z,11.70
2018-09-08T04:02:02.762Z,11.70
2018-09-08T04:04:31.347Z,11.60
2018-09-08T04:06:59.881Z,11.60
2018-09-08T04:09:28.441Z,11.60
2018-09-08T04:11:57.014Z,11.50
2018-09-08T04:14:25.566Z,11.50
2018-09-08T04:16:54.123Z,11.40
2018-09-08T04:19:22.665Z,11.40
2018-09-08T04:21:51.243Z,11.40
2018-09-08T04:24:20.518Z,11.40
2018-09-08T04:26:49.865Z,11.40
2018-09-08T04:29:18.381Z,11.50
2018-09-08T04:31:46.944Z,11.40
2018-09-08T04:34:15.495Z,11.40
2018-09-08T04:36:44.043Z,11.40
2018-09-08T04:39:12.565Z,11.30
2018-09-08T04:41:41.132Z,11.20
2018-09-08T04:44:09.702Z,11.20
2018-09-08T04:46:38.235Z,11.20
2018-09-08T04:49:06.772Z,11.20
2018-09-08T04:51:35.307Z,11.10
2018-09-08T04:54:03.869Z,11.10
2018-09-08T04:56:32.432Z,11.10
2018-09-08T04:59:01.181Z,11.20
2018-09-08T05:01:29.721Z,11.10
2018-09-08T05:03:58.349Z,11.10
2018-09-08T05:06:26.911Z,11.10
2018-09-08T05:08:55.513Z,11.10
2018-09-08T05:11:24.070Z,11.10
2018-09-08T05:13:52.744Z,11.10
2018-09-08T05:16:21.262Z,11.20
2018-09-08T05:18:49.865Z,11.20
2018-09-08T05:21:18.412Z,11.30
2018-09-08T05:23:46.972Z,11.30
2018-09-08T05:26:15.520Z,11.30
2018-09-08T05:28:44.042Z,11.30
2018-09-08T05:31:12.619Z,11.30
2018-09-08T05:33:41.197Z,11.30
2018-09-08T05:36:09.752Z,11.30
2018-09-08T05:38:38.305Z,11.30
2018-09-08T05:41:06.915Z,11.40
2018-09-08T05:43:35.463Z,11.40
2018-09-08T05:46:04.033Z,11.40
2018-09-08T05:48:32.622Z,11.50
2018-09-08T05:51:01.153Z,11.70
2018-09-08T05:53:29.697Z,11.90
2018-09-08T05:55:58.262Z,12.00
2018-09-08T05:58:26.818Z,12.00
2018-09-08T06:00:55.413Z,12.00
2018-09-08T06:03:39.656Z,12.10
2018-09-08T06:06:09.501Z,12.10
2018-09-08T06:08:38.832Z,12.10
2018-09-08T06:11:08.888Z,12.10
2018-09-08T06:13:37.737Z,12.20
2018-09-08T06:16:06.345Z,12.20
2018-09-08T06:18:34.916Z,12.20
2018-09-08T06:21:03.604Z,12.30
2018-09-08T06:23:32.143Z,12.40
2018-09-08T06:26:00.997Z,12.40
2018-09-08T06:28:29.764Z,12.50
2018-09-08T06:30:58.656Z,12.60
2018-09-08T06:33:27.361Z,12.60
2018-09-08T06:35:55.944Z,12.70
2018-09-08T06:38:24.481Z,12.80
2018-09-08T06:40:53.483Z,12.90
2018-09-08T06:43:22.117Z,13.00
2018-09-08T06:45:51.632Z,13.10
2018-09-08T06:48:20.147Z,13.20
2018-09-08T06:50:48.768Z,13.40
2018-09-08T06:53:17.281Z,13.50
2018-09-08T06:55:46.023Z,13.70
2018-09-08T06:58:15.676Z,13.80
2018-09-08T07:00:44.273Z,14.00
2018-09-08T07:03:12.809Z,14.10
2018-09-08T07:05:41.534Z,14.40
2018-09-08T07:08:10.588Z,15.20
2018-09-08T07:10:39.082Z,17.60
2018-09-08T07:13:07.669Z,21.00
2018-09-08T07:15:36.187Z,23.70
2018-09-08T07:18:04.803Z,25.50
2018-09-08T07:20:33.360Z,27.20
2018-09-08T07:23:01.885Z,28.70
2018-09-08T07:25:30.412Z,29.90
2018-09-08T07:27:59.066Z,30.90
2018-09-08T07:30:27.598Z,31.80
2018-09-08T07:32:56.142Z,33.00
2018-09-08T07:35:24.687Z,33.40
2018-09-08T07:37:53.244Z,33.80
2018-09-08T07:40:21.799Z,34.50
2018-09-08T07:42:50.420Z,35.60
2018-09-08T07:45:18.917Z,36.00
2018-09-08T07:47:47.450Z,36.10
2018-09-08T07:50:15.983Z,36.20
2018-09-08T07:52:44.486Z,37.20
2018-09-08T07:55:12.998Z,37.90
2018-09-08T07:57:41.579Z,37.80
2018-09-08T08:00:10.150Z,38.10
2018-09-08T08:02:38.722Z,38.80
2018-09-08T08:05:07.376Z,38.70
2018-09-08T08:07:35.914Z,39.40
2018-09-08T08:10:04.557Z,40.00
2018-09-08T08:12:33.723Z,40.50
2018-09-08T08:15:02.251Z,40.10
2018-09-08T08:17:30.846Z,40.40
2018-09-08T08:19:59.378Z,40.70
2018-09-08T08:22:27.912Z,41.20
2018-09-08T08:24:56.691Z,42.00
2018-09-08T08:27:25.266Z,41.30
2018-09-08T08:29:53.852Z,40.80
2018-09-08T08:32:22.379Z,40.90
2018-09-08T08:34:50.923Z,41.60
2018-09-08T08:37:19.524Z,41.60
2018-09-08T08:39:48.082Z,42.50
2018-09-08T08:42:16.631Z,42.70
2018-09-08T08:44:45.158Z,42.50
2018-09-08T08:47:13.722Z,43.40
2018-09-08T08:49:42.346Z,44.00
2018-09-08T08:52:22.068Z,44.20
2018-09-08T08:54:54.512Z,44.00
2018-09-08T08:57:23.030Z,43.50
2018-09-08T08:59:51.546Z,44.20
2018-09-08T09:02:20.122Z,45.10
2018-09-08T09:04:48.668Z,45.00
2018-09-08T09:07:18.110Z,45.30
2018-09-08T09:09:46.666Z,45.30
2018-09-08T09:12:15.196Z,45.10
2018-09-08T09:14:43.706Z,44.80
2018-09-08T09:17:12.251Z,44.70
2018-09-08T09:19:51.810Z,45.50
2018-09-08T09:22:31.702Z,45.90
2018-09-08T09:25:04.541Z,46.50
2018-09-08T09:27:34.389Z,46.80
2018-09-08T09:30:03.270Z,46.60
2018-09-08T09:32:31.797Z,46.70
2018-09-08T09:35:00.336Z,47.00
2018-09-08T09:37:28.918Z,47.60
2018-09-08T09:39:58.103Z,47.10
2018-09-08T09:42:26.673Z,47.40
2018-09-08T09:45:01.802Z,47.20
2018-09-08T09:47:30.994Z,46.20
2018-09-08T09:49:59.523Z,46.90
2018-09-08T09:52:28.064Z,46.10
2018-09-08T09:54:56.619Z,46.40
2018-09-08T09:57:25.146Z,47.00
2018-09-08T09:59:53.681Z,47.30
2018-09-08T10:02:52.562Z,47.40
2018-09-08T10:05:22.361Z,47.30
2018-09-08T10:07:51.343Z,46.90
2018-09-08T10:10:21.305Z,47.20
2018-09-08T10:12:49.847Z,46.60
2018-09-08T10:15:18.371Z,46.30
2018-09-08T10:17:46.989Z,45.70
2018-09-08T10:20:17.897Z,45.20
2018-09-08T10:22:46.522Z,44.50
2018-09-08T10:25:16.253Z,44.90
2018-09-08T10:27:45.586Z,45.50
2018-09-08T10:30:14.588Z,46.30
2018-09-08T10:32:43.927Z,46.60
2018-09-08T10:35:12.861Z,45.70
2018-09-08T10:37:41.450Z,44.30
2018-09-08T10:40:10.989Z,42.70
2018-09-08T10:42:39.699Z,42.70
2018-09-08T10:45:08.401Z,43.30
2018-09-08T10:47:36.985Z,42.80
2018-09-08T10:50:05.961Z,42.20
2018-09-08T10:52:41.741Z,42.40
2018-09-08T10:55:10.279Z,42.20
2018-09-08T10:57:38.847Z,43.40
2018-09-08T11:00:08.210Z,43.90
2018-09-08T11:02:37.060Z,43.70
2018-09-08T11:05:05.562Z,44.20
2018-09-08T11:07:34.090Z,43.90
2018-09-08T11:10:02.738Z,43.10
2018-09-08T11:12:31.604Z,42.40
2018-09-08T11:15:00.163Z,41.50
2018-09-08T11:17:28.709Z,41.90
2018-09-08T11:19:57.273Z,40.30
2018-09-08T11:22:25.850Z,40.40
2018-09-08T11:24:58.219Z,40.30
2018-09-08T11:27:26.772Z,39.40
2018-09-08T11:29:55.270Z,38.30
2018-09-08T11:32:24.073Z,38.30
2018-09-08T11:34:52.636Z,39.00
2018-09-08T11:37:21.195Z,38.80
2018-09-08T11:39:49.770Z,38.00
2018-09-08T11:42:18.275Z,38.40
2018-09-08T11:44:46.843Z,38.10
2018-09-08T11:47:15.402Z,36.80
2018-09-08T11:49:43.969Z,35.80
2018-09-08T11:52:12.732Z,34.30
2018-09-08T11:54:41.251Z,33.70
2018-09-08T11:57:09.783Z,32.90
2018-09-08T11:59:39.285Z,31.90
2018-09-08T12:02:07.875Z,30.80
2018-09-08T12:04:36.401Z,29.50
2018-09-08T12:07:05.006Z,28.80
2018-09-08T12:09:33.583Z,28.50
2018-09-08T12:12:02.210Z,28.30
2018-09-08T12:14:30.739Z,28.10
2018-09-08T12:16:59.306Z,27.70
2018-09-08T12:19:27.822Z,27.40
2018-09-08T12:21:56.374Z,27.40
2018-09-08T12:24:24.971Z,27.80
2018-09-08T12:26:53.454Z,27.80
2018-09-08T12:29:21.986Z,27.60
2018-09-08T12:31:50.555Z,26.80
2018-09-08T12:34:20.934Z,26.20
2018-09-08T12:36:49.442Z,26.30
2018-09-08T12:39:18.897Z,26.50
2018-09-08T12:41:47.371Z,26.60
2018-09-08T12:44:17.850Z,26.80
2018-09-08T12:46:47.295Z,26.80
2018-09-08T12:49:15.781Z,26.50
2018-09-08T12:51:44.909Z,26.40
2018-09-08T12:54:14.723Z,26.70
2018-09-08T12:56:43.675Z,26.90
2018-09-08T12:59:13.469Z,26.90
2018-09-08T13:01:41.983Z,26.90
2018-09-08T13:04:13.250Z,27.00
2018-09-08T13:06:42.223Z,26.90
2018-09-08T13:09:10.773Z,26.60
2018-09-08T13:11:39.738Z,26.50
2018-09-08T13:14:09.081Z,26.70
2018-09-08T13:16:38.462Z,27.20
2018-09-08T13:19:06.978Z,27.50
2018-09-08T13:21:36.027Z,27.70
2018-09-08T13:24:05.278Z,27.90
2018-09-08T13:26:33.808Z,28.10
2018-09-08T13:29:02.339Z,28.50
2018-09-08T13:31:31.021Z,28.80
2018-09-08T13:34:00.396Z,28.70
2018-09-08T13:36:29.948Z,28.70
2018-09-08T13:39:00.027Z,28.70
2018-09-08T13:41:29.442Z,28.20
2018-09-08T13:43:57.990Z,28.30
2018-09-08T13:46:27.929Z,28.80
2018-09-08T13:48:56.450Z,29.10
2018-09-08T13:51:25.031Z,29.40
2018-09-08T13:53:53.835Z,28.90
2018-09-08T13:56:22.446Z,29.10
2018-09-08T13:58:50.969Z,29.70
2018-09-08T14:01:19.538Z,30.20
2018-09-08T14:03:48.126Z,30.20
2018-09-08T14:06:17.882Z,29.80
2018-09-08T14:08:46.426Z,30.00
2018-09-08T14:11:15.026Z,29.70
2018-09-08T14:13:43.569Z,29.30
2018-09-08T14:16:12.160Z,28.70
2018-09-08T14:18:40.749Z,28.40
2018-09-08T14:21:09.303Z,27.80
2018-09-08T14:23:37.795Z,27.00
2018-09-08T14:26:06.481Z,26.30
2018-09-08T14:28:35.191Z,25.90
2018-09-08T14:31:03.913Z,26.00
2018-09-08T14:33:32.470Z,26.40
2018-09-08T14:36:02.179Z,26.70
2018-09-08T14:38:31.419Z,26.80
2018-09-08T14:40:59.937Z,26.80
2018-09-08T14:43:28.491Z,26.60
2018-09-08T14:45:57.048Z,26.40
2018-09-08T14:48:25.673Z,26.20
2018-09-08T14:50:54.426Z,26.10
2018-09-08T14:53:23.218Z,25.90
2018-09-08T14:55:51.834Z,25.80
2018-09-08T14:58:20.332Z,25.70
2018-09-08T15:00:48.910Z,25.60
2018-09-08T15:03:17.465Z,25.50
2018-09-08T15:05:46.005Z,25.30
2018-09-08T15:08:14.535Z,25.20
2018-09-08T15:10:57.554Z,25.10
2018-09-08T15:13:26.153Z,24.90
2018-09-08T15:15:54.671Z,24.80
2018-09-08T15:18:23.244Z,24.70
2018-09-08T15:20:52.009Z,24.60
2018-09-08T15:23:20.538Z,24.60
2018-09-08T15:25:49.075Z,24.40
2018-09-08T15:28:24.091Z,24.30
2018-09-08T15:30:52.660Z,24.30
2018-09-08T15:33:21.166Z,24.30
2018-09-08T15:35:49.778Z,24.30
2018-09-08T15:38:18.341Z,24.30
2018-09-08T15:40:46.859Z,24.30
2018-09-08T15:43:15.442Z,24.20
2018-09-08T15:45:44.019Z,24.20
2018-09-08T15:48:12.535Z,24.10
2018-09-08T15:50:41.053Z,24.10
2018-09-08T15:53:09.623Z,24.10
2018-09-08T15:55:38.173Z,24.00
2018-09-08T15:58:06.747Z,24.00
2018-09-08T16:00:35.326Z,23.90
2018-09-08T16:03:03.925Z,23.80
2018-09-08T16:05:32.453Z,23.70
2018-09-08T16:08:04.226Z,23.60
2018-09-08T16:10:35.019Z,23.50
2018-09-08T16:13:03.545Z,23.50
2018-09-08T16:15:32.120Z,23.40
2018-09-08T16:18:00.628Z,23.40
2018-09-08T16:20:29.243Z,23.40
2018-09-08T16:22:57.747Z,23.40
2018-09-08T16:25:26.295Z,23.30
2018-09-08T16:27:55.095Z,23.30
2018-09-08T16:30:23.654Z,23.20
2018-09-08T16:32:52.381Z,23.20
2018-09-08T16:35:20.973Z,23.20
2018-09-08T16:37:49.491Z,23.10
2018-09-08T16:40:18.057Z,23.10
2018-09-08T16:42:46.638Z,23.00
2018-09-08T16:45:15.211Z,22.90
2018-09-08T16:47:43.783Z,22.80
2018-09-08T16:50:12.374Z,22.80
2018-09-08T16:52:40.969Z,22.70
2018-09-08T16:55:35.122Z,22.70
2018-09-08T16:58:04.051Z,22.50
2018-09-08T17:00:32.626Z,22.40
2018-09-08T17:03:01.147Z,22.30
2018-09-08T17:05:29.708Z,22.10
2018-09-08T17:07:58.201Z,22.00
2018-09-08T17:10:26.711Z,21.90
2018-09-08T17:12:55.474Z,21.80
2018-09-08T17:15:24.033Z,21.70
2018-09-08T17:17:52.543Z,21.60
2018-09-08T17:20:21.052Z,21.50
2018-09-08T17:22:49.639Z,21.40
2018-09-08T17:25:18.192Z,21.30
2018-09-08T17:27:46.785Z,21.30
2018-09-08T17:30:15.350Z,21.20
2018-09-08T17:32:43.909Z,21.00
2018-09-08T17:35:12.476Z,20.90
2018-09-08T17:37:41.078Z,20.70
2018-09-08T17:40:09.644Z,20.50
2018-09-08T17:42:38.176Z,20.30
2018-09-08T17:45:06.784Z,20.20
2018-09-08T17:47:45.226Z,20.00
2018-09-08T17:50:18.323Z,19.90
2018-09-08T17:52:55.289Z,19.90
2018-09-08T17:55:40.804Z,19.80
2018-09-08T17:58:14.335Z,19.70
2018-09-08T18:00:50.119Z,19.70
2018-09-08T18:03:29.202Z,19.60
2018-09-08T18:05:58.988Z,19.50
2018-09-08T18:08:28.504Z,19.40
2018-09-08T18:10:57.766Z,19.20
2018-09-08T18:13:27.691Z,19.10
2018-09-08T18:15:56.893Z,18.90
2018-09-08T18:18:27.405Z,18.80
2018-09-08T18:20:57.165Z,18.60
2018-09-08T18:23:26.996Z,18.50
2018-09-08T18:25:56.863Z,18.40
2018-09-08T18:28:26.395Z,18.30
2018-09-08T18:30:55.818Z,18.20
2018-09-08T18:33:25.695Z,18.10
2018-09-08T18:35:56.873Z,18.00
2018-09-08T18:38:27.421Z,17.90
2018-09-08T18:40:57.002Z,17.80
2018-09-08T18:43:27.842Z,17.70
2018-09-08T18:45:56.415Z,17.60
2018-09-08T18:48:25.094Z,17.40
2018-09-08T18:50:53.835Z,17.30
2018-09-08T18:53:22.370Z,17.20
2018-09-08T18:55:50.892Z,17.10
2018-09-08T18:58:19.400Z,17.10
2018-09-08T19:00:48.219Z,17.00
2018-09-08T19:03:16.715Z,16.80
2018-09-08T19:05:45.218Z,16.70
2018-09-08T19:08:13.818Z,16.70
2018-09-08T19:10:43.093Z,16.60
2018-09-08T19:13:11.646Z,16.60
2018-09-08T19:15:40.183Z,16.50
2018-09-08T19:18:08.678Z,16.50
2018-09-08T19:20:40.600Z,16.40
2018-09-08T19:23:09.117Z,16.30
2018-09-08T19:25:38.016Z,16.20
2018-09-08T19:28:06.553Z,16.20
2018-09-08T19:30:35.153Z,16.10
2018-09-08T19:33:03.683Z,16.00
2018-09-08T19:35:36.449Z,15.90
2018-09-08T19:38:05.122Z,15.80
2018-09-08T19:40:39.094Z,15.80
2018-09-08T19:43:08.053Z,15.70
2018-09-08T19:45:37.049Z,15.70
2018-09-08T19:48:07.542Z,15.70
2018-09-08T19:50:36.868Z,15.70
2018-09-08T19:53:10.718Z,15.70
2018-09-08T19:55:39.594Z,15.60
2018-09-08T19:58:15.327Z,15.50
2018-09-08T20:00:44.438Z,15.50
2018-09-08T20:03:14.119Z,15.40
2018-09-08T20:05:42.884Z,15.30
2018-09-08T20:08:13.243Z,15.30
2018-09-08T20:10:41.963Z,15.20
2018-09-08T20:13:10.444Z,15.00
2018-09-08T20:15:39.108Z,15.00
2018-09-08T20:18:08.248Z,15.00
2018-09-08T20:20:36.806Z,15.00
2018-09-08T20:23:05.369Z,15.00
2018-09-08T20:25:35.329Z,14.90
2018-09-08T20:28:04.028Z,14.90
2018-09-08T20:30:32.589Z,14.90
2018-09-08T20:33:01.101Z,14.80
2018-09-08T20:35:29.588Z,14.70
2018-09-08T20:37:58.133Z,14.70
2018-09-08T20:40:26.626Z,14.60
2018-09-08T20:42:55.801Z,14.60
2018-09-08T20:45:24.434Z,14.60
2018-09-08T20:47:53.054Z,14.50
2018-09-08T20:50:21.636Z,14.50
2018-09-08T20:52:51.957Z,14.30
2018-09-08T20:55:20.677Z,14.20
2018-09-08T20:57:49.189Z,14.10
2018-09-08T21:00:17.960Z,14.00
2018-09-08T21:02:46.732Z,14.00
2018-09-08T21:05:15.277Z,14.00
2018-09-08T21:07:43.831Z,14.00
2018-09-08T21:10:12.289Z,13.80
2018-09-08T21:12:40.780Z,13.70
2018-09-08T21:15:09.380Z,13.60
2018-09-08T21:17:37.920Z,13.60
2018-09-08T21:20:06.460Z,13.60
2018-09-08T21:22:34.932Z,13.60
2018-09-08T21:25:03.537Z,13.60
2018-09-08T21:27:33.595Z,13.60
2018-09-08T21:30:02.661Z,13.50
2018-09-08T21:32:31.566Z,13.50
2018-09-08T21:35:00.097Z,13.50
2018-09-08T21:37:30.209Z,13.50
2018-09-08T21:39:59.858Z,13.50
2018-09-08T21:42:28.650Z,13.40
2018-09-08T21:44:57.214Z,13.40
2018-09-08T21:47:25.709Z,13.40
2018-09-08T21:49:54.613Z,13.30
2018-09-08T21:52:23.233Z,13.30
2018-09-08T21:54:51.907Z,13.30
2018-09-08T21:57:20.429Z,13.30
2018-09-08T21:59:48.990Z,13.20
2018-09-08T22:02:17.852Z,13.20
2018-09-08T22:04:46.418Z,13.20
2018-09-08T22:07:14.971Z,13.20
2018-09-08T22:09:43.598Z,13.30
2018-09-08T22:12:12.401Z,13.20
2018-09-08T22:14:41.966Z,13.20
2018-09-08T22:17:10.606Z,13.10
2018-09-08T22:19:40.706Z,13.00
2018-09-08T22:22:09.503Z,13.00
2018-09-08T22:24:38.056Z,13.00
2018-09-08T22:27:07.528Z,13.10
2018-09-08T22:29:36.166Z,13.10
2018-09-08T22:32:04.734Z,13.10
2018-09-08T22:34:33.266Z,13.10
2018-09-08T22:37:01.850Z,13.00
2018-09-08T22:39:30.403Z,13.00
2018-09-08T22:41:58.972Z,13.00
2018-09-08T22:44:27.592Z,12.90
2018-09-08T22:46:56.143Z,12.80
2018-09-08T22:49:24.703Z,12.80
2018-09-08T22:51:53.283Z,12.80
2018-09-08T22:54:21.824Z,12.80
2018-09-08T22:56:50.851Z,12.80
2018-09-08T22:59:19.426Z,12.80
2018-09-08T23:01:48.151Z,12.80
2018-09-08T23:04:16.706Z,12.80
2018-09-08T23:06:45.342Z,12.80
2018-09-08T23:09:13.858Z,12.80
2018-09-08T23:11:42.387Z,12.80
2018-09-08T23:14:10.924Z,12.80
2018-09-08T23:16:39.469Z,12.80
2018-09-08T23:19:08.029Z,12.70
2018-09-08T23:21:36.713Z,12.70
2018-09-08T23:24:05.219Z,12.70
2018-09-08T23:26:33.729Z,12.70
2018-09-08T23:29:02.285Z,12.60
2018-09-08T23:31:30.829Z,12.60
2018-09-08T23:33:59.391Z,12.60
2018-09-08T23:36:27.971Z,12.60
2018-09-08T23:38:56.512Z,12.60
2018-09-08T23:41:25.073Z,12.60
2018-09-08T23:43:53.697Z,12.60
2018-09-08T23:46:22.214Z,12.60
2018-09-08T23:48:50.753Z,12.60
2018-09-08T23:51:19.475Z,12.60
2018-09-08T23:53:47.991Z,12.60
2018-09-08T23:56:16.634Z,12.50
2018-09-08T23:58:45.156Z,12.50
